Time;durP1;ratioP1;P1;durP2;ratioP2;P2;SDS_P1;SDS_P2;PMS_P1;PMS_P2;Temp;Humidity;BMP_temperature;BMP_pressure;BME280_temperature;BME280_humidity;BME280_pressure;Samples;Min_cycle;Max_cycle;Signal;HPM_P1;HPM_P2
2023/09/04 00:01:55;;;;;;;16.80;15.20;;;;;;;;;;5097294;28;20055;-77
2023/09/04 00:04:21;;;;;;;18.08;16.13;;;;;;;;;;5096339;28;20431;-77
2023/09/04 00:06:47;;;;;;;18.33;15.70;;;;;;;;;;5095842;28;20055;-77
2023/09/04 00:09:15;;;;;;;19.10;16.10;;;;;;;;;;5096362;28;20060;-78
2023/09/04 00:11:41;;;;;;;17.80;15.88;;;;;;;;;;5095251;28;20404;-78
2023/09/04 00:14:07;;;;;;;18.52;16.20;;;;;;;;;;5096047;28;20040;-78
2023/09/04 00:16:33;;;;;;;18.85;16.98;;;;;;;;;;5096596;28;20079;-77
2023/09/04 00:18:59;;;;;;;20.45;17.13;;;;;;;;;;5094964;28;20118;-78
2023/09/04 00:21:26;;;;;;;18.35;16.48;;;;;;;;;;5096570;28;20040;-77
2023/09/04 00:23:52;;;;;;;18.85;17.00;;;;;;;;;;5094571;28;20044;-78
2023/09/04 00:26:18;;;;;;;18.65;16.63;;;;;;;;;;5096092;28;20047;-77
2023/09/04 00:28:44;;;;;;;19.90;17.52;;;;;;;;;;5081037;28;20075;-78
2023/09/04 00:31:10;;;;;;;18.52;16.73;;;;;;;;;;5096016;28;20191;-78
2023/09/04 00:33:36;;;;;;;18.23;16.33;;;;;;;;;;5083571;28;20053;-78
2023/09/04 00:36:03;;;;;;;18.02;16.13;;;;;;;;;;5091605;28;20400;-77
2023/09/04 00:38:29;;;;;;;20.20;16.33;;;;;;;;;;5094079;28;20048;-77
2023/09/04 00:40:55;;;;;;;18.17;16.27;;;;;;;;;;5093828;28;20040;-77
2023/09/04 00:43:21;;;;;;;19.77;17.77;;;;;;;;;;5092758;28;20040;-76
2023/09/04 00:45:47;;;;;;;18.08;16.25;;;;;;;;;;5095160;28;20101;-77
2023/09/04 00:48:14;;;;;;;19.30;17.30;;;;;;;;;;5093472;28;20143;-77
2023/09/04 00:50:41;;;;;;;19.33;17.33;;;;;;;;;;5095133;28;20040;-76
2023/09/04 00:53:08;;;;;;;18.85;16.95;;;;;;;;;;5093211;28;20051;-76
2023/09/04 00:55:35;;;;;;;19.17;16.83;;;;;;;;;;5092977;28;20477;-77
2023/09/04 00:58:02;;;;;;;20.48;17.60;;;;;;;;;;5095088;28;20040;-77
2023/09/04 01:00:28;;;;;;;19.63;17.52;;;;;;;;;;5093393;28;20042;-77
2023/09/04 01:02:55;;;;;;;20.13;18.02;;;;;;;;;;5093134;28;20051;-76
2023/09/04 01:05:21;;;;;;;19.60;17.58;;;;;;;;;;5093416;28;20508;-77
2023/09/04 01:07:48;;;;;;;21.63;19.15;;;;;;;;;;5093521;28;20080;-76
2023/09/04 01:10:14;;;;;;;19.90;17.88;;;;;;;;;;5093282;28;20044;-76
2023/09/04 01:12:52;;;;;;;23.23;20.83;;;;;;;;;;5095076;28;20056;-76
2023/09/04 01:15:18;;;;;;;23.60;21.00;;;;;;;;;;5094767;28;20131;-77
2023/09/04 01:17:44;;;;;;;22.20;19.90;;;;;;;;;;5095063;28;20143;-77
2023/09/04 01:20:29;;;;;;;21.33;19.05;;;;;;;;;;5094197;28;20048;-77
2023/09/04 01:22:56;;;;;;;22.23;19.77;;;;;;;;;;5093505;28;20047;-77
2023/09/04 01:25:25;;;;;;;21.63;19.45;;;;;;;;;;5094289;28;20365;-77
2023/09/04 01:27:58;;;;;;;24.23;21.13;;;;;;;;;;5094202;28;20072;-77
2023/09/04 01:30:29;;;;;;;23.35;20.80;;;;;;;;;;5094195;28;20040;-77
2023/09/04 01:32:59;;;;;;;24.13;21.52;;;;;;;;;;5093125;28;20059;-77
2023/09/04 01:35:26;;;;;;;23.65;21.13;;;;;;;;;;5092747;28;20044;-77
2023/09/04 01:37:52;;;;;;;22.63;20.33;;;;;;;;;;5094034;28;20048;-77
2023/09/04 01:40:18;;;;;;;22.17;19.60;;;;;;;;;;5082700;28;21458;-77
2023/09/04 01:42:45;;;;;;;23.00;20.60;;;;;;;;;;5093708;28;20131;-77
2023/09/04 01:45:11;;;;;;;23.27;20.05;;;;;;;;;;5091091;28;20074;-77
2023/09/04 01:47:37;;;;;;;21.75;19.45;;;;;;;;;;5090900;28;20515;-76
2023/09/04 01:50:03;;;;;;;21.15;19.05;;;;;;;;;;5094774;28;20044;-75
2023/09/04 01:52:29;;;;;;;20.92;18.70;;;;;;;;;;5097938;28;20127;-76
2023/09/04 01:54:55;;;;;;;20.92;18.85;;;;;;;;;;5096401;28;20034;-77
2023/09/04 01:57:21;;;;;;;21.25;18.90;;;;;;;;;;5093025;28;20545;-77
2023/09/04 01:59:47;;;;;;;18.90;16.98;;;;;;;;;;5092875;28;20040;-76
2023/09/04 02:02:13;;;;;;;19.00;17.13;;;;;;;;;;5093201;28;20109;-77
2023/09/04 02:04:39;;;;;;;19.17;16.80;;;;;;;;;;5093997;28;20040;-76
2023/09/04 02:07:06;;;;;;;17.92;16.13;;;;;;;;;;5094150;28;20051;-77
2023/09/04 02:09:32;;;;;;;16.55;14.13;;;;;;;;;;5093631;28;20059;-77
2023/09/04 02:11:58;;;;;;;16.42;14.73;;;;;;;;;;5094092;28;20507;-76
2023/09/04 02:14:24;;;;;;;15.52;13.85;;;;;;;;;;5093318;28;20036;-77
2023/09/04 02:16:50;;;;;;;15.80;14.07;;;;;;;;;;5075780;28;20051;-76
2023/09/04 02:19:16;;;;;;;15.40;13.68;;;;;;;;;;5092571;28;20051;-77
2023/09/04 02:21:42;;;;;;;17.05;13.75;;;;;;;;;;5092055;28;20040;-77
2023/09/04 02:24:08;;;;;;;14.15;12.75;;;;;;;;;;5092459;28;20082;-77
2023/09/04 02:26:34;;;;;;;14.38;12.98;;;;;;;;;;5093817;28;20369;-77
2023/09/04 02:29:00;;;;;;;14.18;12.77;;;;;;;;;;5075604;28;20086;-78
2023/09/04 02:31:26;;;;;;;13.98;12.50;;;;;;;;;;5094159;28;20044;-77
2023/09/04 02:33:52;;;;;;;13.35;11.98;;;;;;;;;;5093385;28;20094;-76
2023/09/04 02:36:18;;;;;;;13.38;11.95;;;;;;;;;;5091991;28;20054;-77
2023/09/04 02:38:44;;;;;;;13.98;12.57;;;;;;;;;;5093495;28;20040;-77
2023/09/04 02:41:10;;;;;;;12.32;11.07;;;;;;;;;;5091947;28;20381;-77
2023/09/04 02:43:36;;;;;;;14.85;11.80;;;;;;;;;;5091975;28;20124;-77
2023/09/04 02:46:02;;;;;;;13.27;11.57;;;;;;;;;;5091839;28;20126;-77
2023/09/04 02:48:28;;;;;;;12.80;11.50;;;;;;;;;;5091804;28;20055;-78
2023/09/04 02:51:01;;;;;;;12.00;10.80;;;;;;;;;;5092248;28;20036;-77
2023/09/04 02:53:27;;;;;;;13.20;10.48;;;;;;;;;;5092993;28;20084;-78
2023/09/04 02:55:54;;;;;;;12.45;11.07;;;;;;;;;;5093394;28;20042;-77
2023/09/04 02:58:21;;;;;;;11.90;10.70;;;;;;;;;;5091653;28;20075;-77
2023/09/04 03:00:47;;;;;;;12.07;10.48;;;;;;;;;;5091395;28;20073;-77
2023/09/04 03:03:14;;;;;;;11.68;10.48;;;;;;;;;;5091870;28;20055;-77
2023/09/04 03:05:40;;;;;;;11.63;10.43;;;;;;;;;;5091580;28;20055;-77
2023/09/04 03:08:06;;;;;;;11.35;9.90;;;;;;;;;;5091969;28;20074;-77
2023/09/04 03:10:32;;;;;;;11.73;10.45;;;;;;;;;;5092971;28;20048;-77
2023/09/04 03:12:58;;;;;;;11.27;10.15;;;;;;;;;;5092875;28;20047;-77
2023/09/04 03:15:24;;;;;;;10.77;9.68;;;;;;;;;;5093186;28;20134;-78
2023/09/04 03:17:50;;;;;;;11.57;10.15;;;;;;;;;;5092010;28;20131;-78
2023/09/04 03:20:19;;;;;;;10.95;9.68;;;;;;;;;;5083122;28;20044;-77
2023/09/04 03:22:46;;;;;;;11.90;10.32;;;;;;;;;;5092699;28;20502;-78
2023/09/04 03:25:12;;;;;;;12.70;10.00;;;;;;;;;;5090954;28;20047;-77
2023/09/04 03:27:38;;;;;;;11.48;10.27;;;;;;;;;;5090963;28;20127;-76
2023/09/04 03:30:04;;;;;;;10.80;9.52;;;;;;;;;;5091533;28;20404;-77
2023/09/04 03:32:30;;;;;;;10.98;9.88;;;;;;;;;;5087578;28;20044;-76
2023/09/04 03:34:57;;;;;;;10.75;9.43;;;;;;;;;;5082763;28;20040;-77
2023/09/04 03:37:24;;;;;;;12.27;10.27;;;;;;;;;;5090762;28;20047;-77
2023/09/04 03:39:50;;;;;;;12.05;10.48;;;;;;;;;;5090978;28;20052;-77
2023/09/04 03:42:16;;;;;;;10.93;9.73;;;;;;;;;;5092359;28;20044;-78
2023/09/04 03:44:42;;;;;;;10.50;9.40;;;;;;;;;;5092153;28;20046;-78
2023/09/04 03:47:08;;;;;;;12.15;9.05;;;;;;;;;;5090916;28;20044;-76
2023/09/04 03:49:34;;;;;;;9.75;8.75;;;;;;;;;;5091533;28;20109;-77
2023/09/04 03:52:00;;;;;;;9.75;8.75;;;;;;;;;;5091791;28;20047;-77
2023/09/04 03:54:29;;;;;;;10.43;9.20;;;;;;;;;;5091462;28;20082;-77
2023/09/04 03:56:55;;;;;;;11.38;8.82;;;;;;;;;;5091335;28;20415;-77
2023/09/04 03:59:21;;;;;;;10.65;9.07;;;;;;;;;;5090192;28;20051;-77
2023/09/04 04:01:47;;;;;;;9.88;8.50;;;;;;;;;;5090761;28;20091;-77
2023/09/04 04:04:13;;;;;;;11.10;9.70;;;;;;;;;;5090330;28;20047;-77
2023/09/04 04:06:39;;;;;;;10.90;9.20;;;;;;;;;;5073904;28;20404;-77
2023/09/04 04:09:06;;;;;;;10.70;9.60;;;;;;;;;;5090170;28;20489;-77
2023/09/04 04:11:34;;;;;;;11.00;9.90;;;;;;;;;;5089852;28;20123;-77
2023/09/04 04:14:00;;;;;;;11.13;9.63;;;;;;;;;;5088770;28;20050;-77
2023/09/04 04:16:26;;;;;;;11.10;9.30;;;;;;;;;;5091048;28;20086;-77
2023/09/04 04:18:52;;;;;;;11.52;9.60;;;;;;;;;;5091804;28;20053;-76
2023/09/04 04:21:18;;;;;;;10.88;9.57;;;;;;;;;;5090939;28;20054;-77
2023/09/04 04:23:44;;;;;;;14.65;9.63;;;;;;;;;;5091420;28;20040;-77
2023/09/04 04:26:10;;;;;;;13.32;9.90;;;;;;;;;;5073930;28;20040;-77
2023/09/04 04:28:36;;;;;;;13.80;9.38;;;;;;;;;;5091740;28;20143;-77
2023/09/04 04:31:02;;;;;;;11.38;8.90;;;;;;;;;;5090810;28;20484;-76
2023/09/04 04:33:28;;;;;;;13.65;9.32;;;;;;;;;;5090928;28;20040;-76
2023/09/04 04:35:55;;;;;;;11.90;9.10;;;;;;;;;;5090409;28;20124;-76
2023/09/04 04:38:21;;;;;;;11.50;9.15;;;;;;;;;;5093455;28;20044;-76
2023/09/04 04:40:47;;;;;;;9.77;8.82;;;;;;;;;;5093856;28;20109;-76
2023/09/04 04:43:14;;;;;;;9.80;8.80;;;;;;;;;;5094850;28;20044;-77
2023/09/04 04:45:40;;;;;;;11.25;9.27;;;;;;;;;;5094381;28;20089;-78
2023/09/04 04:48:06;;;;;;;11.75;9.13;;;;;;;;;;5094934;28;20518;-77
2023/09/04 04:50:32;;;;;;;10.82;9.15;;;;;;;;;;5093936;28;20619;-77
2023/09/04 04:52:58;;;;;;;11.45;8.80;;;;;;;;;;5094926;28;20138;-77
2023/09/04 04:55:25;;;;;;;10.05;8.63;;;;;;;;;;5093671;28;20165;-77
2023/09/04 04:57:51;;;;;;;10.70;8.90;;;;;;;;;;5094945;28;20040;-77
2023/09/04 05:00:17;;;;;;;9.85;8.20;;;;;;;;;;5094978;28;20345;-77
2023/09/04 05:02:43;;;;;;;13.95;8.90;;;;;;;;;;5076572;28;20048;-77
2023/09/04 05:05:10;;;;;;;9.20;8.18;;;;;;;;;;5093705;28;20048;-77
2023/09/04 05:07:37;;;;;;;10.57;8.50;;;;;;;;;;5093287;28;20048;-77
2023/09/04 05:10:03;;;;;;;9.63;8.43;;;;;;;;;;5093298;28;20064;-78
2023/09/04 05:12:29;;;;;;;11.90;8.60;;;;;;;;;;5093381;28;20043;-77
2023/09/04 05:14:55;;;;;;;11.77;9.00;;;;;;;;;;5076456;28;20040;-77
2023/09/04 05:17:21;;;;;;;10.57;7.95;;;;;;;;;;5097940;28;20393;-75
2023/09/04 05:19:47;;;;;;;9.77;8.63;;;;;;;;;;5098958;28;20048;-75
2023/09/04 05:22:13;;;;;;;10.23;8.60;;;;;;;;;;5094645;28;20044;-77
2023/09/04 05:24:39;;;;;;;11.55;9.27;;;;;;;;;;5094700;28;20047;-77
2023/09/04 05:27:05;;;;;;;10.80;9.45;;;;;;;;;;5086906;28;20028;-77
2023/09/04 05:29:32;;;;;;;10.30;9.20;;;;;;;;;;5087071;28;20051;-77
2023/09/04 05:31:58;;;;;;;10.73;8.93;;;;;;;;;;5092978;28;20397;-77
2023/09/04 05:34:25;;;;;;;11.30;9.18;;;;;;;;;;5078696;28;20039;-77
2023/09/04 05:36:51;;;;;;;11.02;9.30;;;;;;;;;;5093518;28;20496;-77
2023/09/04 05:39:17;;;;;;;10.95;8.55;;;;;;;;;;5093081;28;20442;-77
2023/09/04 05:41:43;;;;;;;12.48;9.52;;;;;;;;;;5094487;28;20430;-76
2023/09/04 05:44:09;;;;;;;12.82;9.70;;;;;;;;;;5092716;28;20044;-77
2023/09/04 05:46:35;;;;;;;11.70;9.60;;;;;;;;;;5076608;28;20147;-77
2023/09/04 05:49:02;;;;;;;13.15;9.20;;;;;;;;;;5085908;28;20036;-77
2023/09/04 05:51:28;;;;;;;13.27;9.55;;;;;;;;;;5090420;28;20401;-78
2023/09/04 05:53:54;;;;;;;12.50;8.98;;;;;;;;;;5093774;28;20070;-77
2023/09/04 05:56:20;;;;;;;16.67;9.18;;;;;;;;;;5094533;28;20055;-77
2023/09/04 05:58:50;;;;;;;14.68;8.88;;;;;;;;;;5094257;28;20392;-77
2023/09/04 06:01:17;;;;;;;16.73;9.05;;;;;;;;;;5094433;28;20397;-77
2023/09/04 06:03:43;;;;;;;16.80;9.02;;;;;;;;;;5093955;28;20091;-78
2023/09/04 06:06:09;;;;;;;15.07;9.38;;;;;;;;;;5094328;28;20044;-76
2023/09/04 06:08:36;;;;;;;15.43;8.90;;;;;;;;;;5093761;28;20120;-77
2023/09/04 06:11:02;;;;;;;14.65;8.63;;;;;;;;;;5093737;28;20113;-77
2023/09/04 06:13:29;;;;;;;16.02;9.55;;;;;;;;;;5092034;28;20055;-78
2023/09/04 06:15:55;;;;;;;19.40;9.32;;;;;;;;;;5093719;28;20044;-79
2023/09/04 06:18:21;;;;;;;18.33;8.90;;;;;;;;;;5093809;28;20048;-78
2023/09/04 06:20:47;;;;;;;14.43;8.73;;;;;;;;;;5093463;28;20421;-79
2023/09/04 06:23:13;;;;;;;13.95;8.80;;;;;;;;;;5092190;28;20051;-77
2023/09/04 06:25:42;;;;;;;12.27;9.15;;;;;;;;;;5090128;28;20127;-77
2023/09/04 06:28:09;;;;;;;13.95;8.30;;;;;;;;;;5091459;28;20092;-78
2023/09/04 06:30:35;;;;;;;11.70;8.50;;;;;;;;;;5093605;28;20084;-78
2023/09/04 06:33:02;;;;;;;10.23;8.70;;;;;;;;;;5090364;28;20051;-78
2023/09/04 06:35:31;;;;;;;10.52;8.48;;;;;;;;;;5091877;28;20059;-78
2023/09/04 06:37:57;;;;;;;11.23;8.57;;;;;;;;;;5092027;28;20050;-78
2023/09/04 06:40:23;;;;;;;11.40;8.40;;;;;;;;;;5091872;28;20059;-78
2023/09/04 06:42:49;;;;;;;10.23;8.10;;;;;;;;;;5077659;28;20380;-77
2023/09/04 06:45:16;;;;;;;12.05;7.65;;;;;;;;;;5073058;28;20186;-77
2023/09/04 06:47:42;;;;;;;13.02;8.13;;;;;;;;;;5073042;28;20040;-78
2023/09/04 06:50:08;;;;;;;11.40;7.45;;;;;;;;;;5062622;28;20207;-78
2023/09/04 06:52:35;;;;;;;9.48;8.15;;;;;;;;;;5090039;28;20048;-77
2023/09/04 06:55:02;;;;;;;12.27;7.90;;;;;;;;;;5090855;28;20047;-77
2023/09/04 06:57:28;;;;;;;11.50;7.13;;;;;;;;;;5092854;28;20087;-78
2023/09/04 06:59:56;;;;;;;14.52;7.43;;;;;;;;;;5093172;28;20047;-75
2023/09/04 07:02:22;;;;;;;11.20;7.57;;;;;;;;;;5091476;28;20056;-77
2023/09/04 07:04:48;;;;;;;11.73;7.43;;;;;;;;;;5092676;28;20040;-78
2023/09/04 07:07:14;;;;;;;9.65;7.32;;;;;;;;;;5073530;28;20123;-77
2023/09/04 07:09:40;;;;;;;9.98;7.28;;;;;;;;;;5092125;28;20052;-77
2023/09/04 07:12:06;;;;;;;10.00;7.10;;;;;;;;;;5093310;28;20373;-77
2023/09/04 07:14:32;;;;;;;9.20;7.45;;;;;;;;;;5094406;28;20050;-77
2023/09/04 07:16:59;;;;;;;8.75;7.15;;;;;;;;;;5094613;28;20495;-78
2023/09/04 07:19:25;;;;;;;11.18;7.32;;;;;;;;;;5093077;28;20040;-78
2023/09/04 07:21:51;;;;;;;9.20;6.68;;;;;;;;;;5091321;28;20500;-78
2023/09/04 07:24:17;;;;;;;10.20;6.72;;;;;;;;;;5092828;28;20052;-77
2023/09/04 07:26:43;;;;;;;8.15;6.50;;;;;;;;;;5089394;28;20119;-77
2023/09/04 07:29:09;;;;;;;8.85;7.15;;;;;;;;;;5088010;28;20040;-77
2023/09/04 07:31:35;;;;;;;8.45;7.40;;;;;;;;;;5071536;28;20054;-77
2023/09/04 07:34:02;;;;;;;9.07;6.95;;;;;;;;;;5091588;28;20075;-77
2023/09/04 07:36:28;;;;;;;9.85;7.05;;;;;;;;;;5092619;28;20047;-78
2023/09/04 07:38:54;;;;;;;8.40;7.03;;;;;;;;;;5090360;28;20159;-78
2023/09/04 07:41:20;;;;;;;11.07;6.70;;;;;;;;;;5091907;28;20404;-79
2023/09/04 07:43:46;;;;;;;10.25;7.03;;;;;;;;;;5088524;28;20048;-78
2023/09/04 07:46:14;;;;;;;7.55;6.72;;;;;;;;;;5088669;28;20043;-77
2023/09/04 07:48:40;;;;;;;7.60;6.78;;;;;;;;;;5085963;28;20048;-78
2023/09/04 07:51:06;;;;;;;8.93;7.18;;;;;;;;;;5089114;28;20337;-77
2023/09/04 07:53:32;;;;;;;7.07;6.38;;;;;;;;;;5088624;28;20036;-78
2023/09/04 07:55:58;;;;;;;10.57;6.78;;;;;;;;;;5084550;28;20051;-79
2023/09/04 07:58:25;;;;;;;7.93;5.93;;;;;;;;;;5091719;28;20039;-79
2023/09/04 08:00:52;;;;;;;6.47;5.57;;;;;;;;;;5100887;28;20043;-77
2023/09/04 08:03:18;;;;;;;9.93;6.10;;;;;;;;;;5111985;28;20494;-78
2023/09/04 08:05:45;;;;;;;8.35;6.40;;;;;;;;;;5091085;28;20044;-79
2023/09/04 08:08:11;;;;;;;8.63;6.20;;;;;;;;;;5092130;28;20063;-77
2023/09/04 08:10:43;;;;;;;7.38;5.43;;;;;;;;;;5092121;28;20147;-78
2023/09/04 08:13:16;;;;;;;7.82;6.03;;;;;;;;;;5099711;28;20060;-78
2023/09/04 08:15:42;;;;;;;7.80;5.32;;;;;;;;;;5116320;28;20051;-78
2023/09/04 08:18:09;;;;;;;9.98;5.70;;;;;;;;;;5116443;28;20496;-78
2023/09/04 08:20:36;;;;;;;7.75;4.82;;;;;;;;;;5116382;28;20392;-77
2023/09/04 08:23:02;;;;;;;7.60;5.03;;;;;;;;;;5115046;28;20492;-76
2023/09/04 08:25:28;;;;;;;6.43;4.80;;;;;;;;;;5113848;28;20044;-76
2023/09/04 08:27:54;;;;;;;6.55;5.00;;;;;;;;;;5086280;28;20341;-77
2023/09/04 08:30:20;;;;;;;5.80;4.40;;;;;;;;;;5073672;28;20044;-77
2023/09/04 08:32:46;;;;;;;6.82;3.95;;;;;;;;;;5074542;28;20147;-76
2023/09/04 08:35:12;;;;;;;4.97;3.90;;;;;;;;;;5075721;28;20128;-76
2023/09/04 08:37:39;;;;;;;5.25;3.80;;;;;;;;;;5075549;28;20047;-78
2023/09/04 08:40:05;;;;;;;6.10;3.83;;;;;;;;;;5074685;28;20040;-78
2023/09/04 08:42:32;;;;;;;5.68;4.28;;;;;;;;;;5079122;28;20056;-78
2023/09/04 08:44:58;;;;;;;5.50;3.60;;;;;;;;;;5080720;28;20134;-77
2023/09/04 08:47:25;;;;;;;4.72;3.38;;;;;;;;;;5075407;28;20044;-77
2023/09/04 08:49:53;;;;;;;8.80;3.78;;;;;;;;;;5073893;28;20392;-77
2023/09/04 08:52:19;;;;;;;7.25;3.53;;;;;;;;;;5076973;28;20115;-78
2023/09/04 08:54:46;;;;;;;6.28;3.33;;;;;;;;;;5094472;28;20377;-78
2023/09/04 08:57:12;;;;;;;5.05;3.40;;;;;;;;;;5094093;28;20036;-78
2023/09/04 08:59:38;;;;;;;5.10;3.55;;;;;;;;;;5094254;28;20105;-79
2023/09/04 09:02:05;;;;;;;4.68;3.13;;;;;;;;;;5095840;28;20083;-78
2023/09/04 09:04:32;;;;;;;4.72;3.03;;;;;;;;;;5089805;28;20055;-78
2023/09/04 09:06:58;;;;;;;4.57;3.13;;;;;;;;;;5095485;28;20113;-79
2023/09/04 09:09:24;;;;;;;4.97;2.92;;;;;;;;;;5093673;28;20052;-78
2023/09/04 09:11:53;;;;;;;5.55;3.08;;;;;;;;;;5093954;28;20044;-78
2023/09/04 09:14:20;;;;;;;4.85;2.55;;;;;;;;;;5084479;28;20044;-77
2023/09/04 09:16:46;;;;;;;6.00;2.83;;;;;;;;;;5094107;28;20040;-78
2023/09/04 09:19:13;;;;;;;8.82;3.72;;;;;;;;;;5111864;28;20115;-79
2023/09/04 09:21:39;;;;;;;6.28;2.90;;;;;;;;;;5114037;28;20040;-78
2023/09/04 09:24:19;;;;;;;6.55;2.90;;;;;;;;;;5113230;28;20070;-79
2023/09/04 09:26:50;;;;;;;4.05;2.55;;;;;;;;;;5095506;28;20519;-78
2023/09/04 09:29:17;;;;;;;5.07;2.67;;;;;;;;;;5093429;28;20052;-79
2023/09/04 09:31:45;;;;;;;4.60;2.60;;;;;;;;;;5093691;28;20169;-79
2023/09/04 09:34:12;;;;;;;7.47;2.72;;;;;;;;;;5076312;28;20044;-79
2023/09/04 09:36:38;;;;;;;4.32;2.50;;;;;;;;;;5093415;28;20146;-78
2023/09/04 09:39:05;;;;;;;6.63;2.30;;;;;;;;;;5076540;28;20530;-80
2023/09/04 09:41:32;;;;;;;6.80;2.38;;;;;;;;;;5087991;28;20130;-80
2023/09/04 09:44:03;;;;;;;5.50;2.38;;;;;;;;;;5094282;28;20036;-81
2023/09/04 09:46:31;;;;;;;4.82;2.30;;;;;;;;;;5090489;28;20094;-80
2023/09/04 09:48:58;;;;;;;7.75;2.53;;;;;;;;;;5091157;28;20050;-80
2023/09/04 09:51:25;;;;;;;6.65;2.30;;;;;;;;;;5092624;28;20048;-79
2023/09/04 09:53:51;;;;;;;4.63;2.45;;;;;;;;;;5093348;28;20044;-80
2023/09/04 09:56:19;;;;;;;3.22;2.22;;;;;;;;;;5093934;28;20036;-79
2023/09/04 09:58:46;;;;;;;4.78;2.38;;;;;;;;;;5092964;28;20071;-80
2023/09/04 10:01:13;;;;;;;6.40;2.40;;;;;;;;;;5094122;28;20431;-79
2023/09/04 10:03:39;;;;;;;5.80;2.42;;;;;;;;;;5092383;28;20032;-79
2023/09/04 10:06:06;;;;;;;4.68;1.75;;;;;;;;;;5094076;28;20137;-79
2023/09/04 10:08:33;;;;;;;3.67;2.10;;;;;;;;;;5093317;28;20132;-79
2023/09/04 10:11:01;;;;;;;3.85;2.00;;;;;;;;;;5093905;28;20228;-79
2023/09/04 10:13:28;;;;;;;5.82;2.30;;;;;;;;;;5093838;28;20097;-79
2023/09/04 10:15:58;;;;;;;4.22;2.55;;;;;;;;;;5093695;28;20044;-79
2023/09/04 10:18:26;;;;;;;5.28;2.00;;;;;;;;;;5093347;28;20047;-80
2023/09/04 10:20:53;;;;;;;3.25;2.10;;;;;;;;;;5092121;28;20035;-79
2023/09/04 10:23:24;;;;;;;3.90;2.10;;;;;;;;;;5094655;28;20123;-79
2023/09/04 10:25:56;;;;;;;3.78;1.70;;;;;;;;;;5094931;28;20044;-79
2023/09/04 10:28:25;;;;;;;3.55;2.10;;;;;;;;;;5081778;28;20045;-79
2023/09/04 10:30:53;;;;;;;4.55;1.90;;;;;;;;;;5097445;28;20051;-80
2023/09/04 10:33:20;;;;;;;3.53;2.10;;;;;;;;;;5092907;28;20074;-79
2023/09/04 10:35:46;;;;;;;4.03;2.17;;;;;;;;;;5098365;28;20123;-79
2023/09/04 10:38:13;;;;;;;4.00;1.88;;;;;;;;;;5093153;28;20119;-79
2023/09/04 10:40:40;;;;;;;4.30;2.10;;;;;;;;;;5091550;28;20093;-78
2023/09/04 10:43:06;;;;;;;5.55;2.40;;;;;;;;;;5091985;28;20051;-79
2023/09/04 10:45:33;;;;;;;4.00;2.10;;;;;;;;;;5096798;28;20156;-79
2023/09/04 10:48:01;;;;;;;3.35;1.70;;;;;;;;;;5090642;28;20048;-80
2023/09/04 10:50:31;;;;;;;2.92;2.08;;;;;;;;;;5099786;28;20093;-78
2023/09/04 10:52:58;;;;;;;4.70;1.95;;;;;;;;;;5091636;28;20408;-79
2023/09/04 10:55:24;;;;;;;5.60;2.85;;;;;;;;;;5093200;28;20055;-80
2023/09/04 10:57:57;;;;;;;4.65;2.00;;;;;;;;;;5093691;28;20056;-81
2023/09/04 11:00:36;;;;;;;3.22;1.90;;;;;;;;;;5092174;28;20040;-79
2023/09/04 11:03:19;;;;;;;2.75;1.75;;;;;;;;;;5091483;28;20134;-80
2023/09/04 11:06:07;;;;;;;3.72;2.00;;;;;;;;;;5090722;28;20059;-80
2023/09/04 11:08:34;;;;;;;3.38;1.80;;;;;;;;;;5092495;28;20556;-79
2023/09/04 11:11:02;;;;;;;3.47;2.00;;;;;;;;;;5100112;28;20113;-78
2023/09/04 11:13:28;;;;;;;2.85;1.80;;;;;;;;;;5092756;28;20048;-81
2023/09/04 11:15:56;;;;;;;5.25;2.03;;;;;;;;;;5085888;28;20048;-78
2023/09/04 11:18:22;;;;;;;5.65;2.15;;;;;;;;;;5091173;28;20044;-79
2023/09/04 11:20:54;;;;;;;4.28;1.90;;;;;;;;;;5088512;28;20040;-79
2023/09/04 11:23:20;;;;;;;4.10;2.03;;;;;;;;;;5086117;28;20048;-79
2023/09/04 11:25:47;;;;;;;4.43;2.10;;;;;;;;;;5088997;28;20077;-79
2023/09/04 11:28:13;;;;;;;4.70;2.17;;;;;;;;;;5074471;28;20036;-79
2023/09/04 11:30:39;;;;;;;3.65;2.00;;;;;;;;;;5071842;28;20105;-79
2023/09/04 11:33:06;;;;;;;6.03;2.00;;;;;;;;;;5086725;28;20161;-80
2023/09/04 11:35:33;;;;;;;3.72;2.00;;;;;;;;;;5091874;28;20040;-80
2023/09/04 11:38:00;;;;;;;5.32;1.88;;;;;;;;;;5092444;28;20044;-79
2023/09/04 11:40:32;;;;;;;3.55;1.90;;;;;;;;;;5091499;28;20055;-80
2023/09/04 11:42:58;;;;;;;4.35;1.67;;;;;;;;;;5091945;28;20094;-80
2023/09/04 11:45:25;;;;;;;3.38;1.80;;;;;;;;;;5089751;28;20400;-79
2023/09/04 11:47:51;;;;;;;3.42;1.88;;;;;;;;;;5073387;28;20040;-79
2023/09/04 11:50:17;;;;;;;3.63;1.90;;;;;;;;;;5089700;28;20057;-80
2023/09/04 11:52:43;;;;;;;4.18;1.83;;;;;;;;;;5091968;28;20044;-80
2023/09/04 11:55:11;;;;;;;4.22;1.60;;;;;;;;;;5091139;28;20036;-80
2023/09/04 11:57:37;;;;;;;3.78;1.67;;;;;;;;;;5092299;28;20401;-80
2023/09/04 12:00:05;;;;;;;6.40;1.65;;;;;;;;;;5091390;28;20437;-78
2023/09/04 12:02:31;;;;;;;3.58;1.70;;;;;;;;;;5089605;28;20150;-79
2023/09/04 12:04:59;;;;;;;4.68;1.75;;;;;;;;;;5088705;28;20105;-79
2023/09/04 12:07:27;;;;;;;2.60;1.65;;;;;;;;;;5089968;28;20127;-80
2023/09/04 12:09:53;;;;;;;4.95;1.40;;;;;;;;;;5090318;28;20065;-79
2023/09/04 12:12:20;;;;;;;3.60;1.50;;;;;;;;;;5091081;28;20052;-79
2023/09/04 12:14:46;;;;;;;4.20;1.60;;;;;;;;;;5092375;28;20123;-80
2023/09/04 12:17:12;;;;;;;3.08;1.58;;;;;;;;;;5091849;28;20040;-79
2023/09/04 12:19:38;;;;;;;7.07;1.80;;;;;;;;;;5091295;28;20450;-79
2023/09/04 12:22:12;;;;;;;4.57;1.73;;;;;;;;;;5092465;28;20048;-78
2023/09/04 12:24:38;;;;;;;9.80;2.30;;;;;;;;;;5092275;28;20108;-79
2023/09/04 12:27:04;;;;;;;8.02;2.50;;;;;;;;;;5087535;28;20481;-82
2023/09/04 12:29:30;;;;;;;3.15;1.73;;;;;;;;;;5075275;28;20032;-80
2023/09/04 12:31:58;;;;;;;2.78;1.60;;;;;;;;;;5091658;28;20055;-78
2023/09/04 12:34:27;;;;;;;4.10;1.60;;;;;;;;;;5084464;28;20044;-77
2023/09/04 12:36:57;;;;;;;5.78;1.67;;;;;;;;;;5083114;28;20080;-78
2023/09/04 12:39:23;;;;;;;3.97;1.83;;;;;;;;;;5071487;28;20032;-78
2023/09/04 12:41:56;;;;;;;3.65;1.90;;;;;;;;;;5072182;28;20041;-79
2023/09/04 12:44:22;;;;;;;4.05;1.90;;;;;;;;;;5070384;28;20048;-79
2023/09/04 12:46:48;;;;;;;2.78;1.70;;;;;;;;;;5070729;28;20520;-78
2023/09/04 12:49:17;;;;;;;3.65;1.73;;;;;;;;;;5070462;28;20059;-79
2023/09/04 12:51:43;;;;;;;3.03;1.55;;;;;;;;;;5071987;28;20378;-78
2023/09/04 12:54:09;;;;;;;2.75;1.70;;;;;;;;;;5068139;28;20051;-78
2023/09/04 12:56:35;;;;;;;2.35;1.70;;;;;;;;;;5071651;28;20052;-77
2023/09/04 12:59:01;;;;;;;2.65;1.70;;;;;;;;;;5072147;28;20101;-78
2023/09/04 13:01:28;;;;;;;3.15;1.58;;;;;;;;;;5073465;28;20094;-78
2023/09/04 13:03:54;;;;;;;3.72;1.90;;;;;;;;;;5072765;28;20539;-79
2023/09/04 13:06:20;;;;;;;4.40;1.67;;;;;;;;;;5070613;28;20094;-78
2023/09/04 13:08:47;;;;;;;3.58;1.60;;;;;;;;;;5073134;28;20064;-78
2023/09/04 13:11:13;;;;;;;4.03;1.77;;;;;;;;;;5057416;28;20055;-78
2023/09/04 13:13:41;;;;;;;4.13;1.80;;;;;;;;;;5073807;28;20064;-78
2023/09/04 13:16:07;;;;;;;2.53;1.70;;;;;;;;;;5075360;28;20056;-79
2023/09/04 13:18:33;;;;;;;3.38;1.80;;;;;;;;;;5075071;28;20044;-78
2023/09/04 13:21:00;;;;;;;2.63;1.65;;;;;;;;;;5074964;28;20045;-77
2023/09/04 13:23:27;;;;;;;3.55;1.70;;;;;;;;;;5074871;28;20121;-78
2023/09/04 13:25:53;;;;;;;3.85;1.67;;;;;;;;;;5075402;28;20409;-78
2023/09/04 13:28:19;;;;;;;3.33;1.90;;;;;;;;;;5073103;28;20048;-77
2023/09/04 13:30:45;;;;;;;2.92;1.63;;;;;;;;;;5089616;28;20036;-77
2023/09/04 13:33:11;;;;;;;3.22;1.67;;;;;;;;;;5073963;28;20091;-78
2023/09/04 13:35:37;;;;;;;2.72;1.80;;;;;;;;;;5090669;28;20048;-77
2023/09/04 13:38:03;;;;;;;4.20;1.90;;;;;;;;;;5075445;28;20040;-78
2023/09/04 13:40:31;;;;;;;4.07;2.10;;;;;;;;;;5075046;28;20181;-78
2023/09/04 13:42:57;;;;;;;4.45;1.83;;;;;;;;;;5090165;28;20505;-79
2023/09/04 13:45:23;;;;;;;2.80;1.80;;;;;;;;;;5089044;28;20051;-77
2023/09/04 13:47:52;;;;;;;3.67;2.00;;;;;;;;;;5073807;28;20044;-78
2023/09/04 13:50:18;;;;;;;3.15;1.80;;;;;;;;;;5072966;28;20101;-77
2023/09/04 13:52:44;;;;;;;3.45;1.50;;;;;;;;;;5074073;28;20045;-78
2023/09/04 13:55:11;;;;;;;4.15;1.80;;;;;;;;;;5070868;28;20068;-77
2023/09/04 13:57:37;;;;;;;3.85;1.80;;;;;;;;;;5071960;28;20063;-78
2023/09/04 14:00:04;;;;;;;3.42;1.90;;;;;;;;;;5074289;28;20044;-78
2023/09/04 14:02:30;;;;;;;3.05;1.70;;;;;;;;;;5074232;28;20044;-78
2023/09/04 14:04:56;;;;;;;5.55;1.80;;;;;;;;;;5074014;28;20045;-78
2023/09/04 14:07:22;;;;;;;3.25;2.08;;;;;;;;;;5074084;28;20502;-78
2023/09/04 14:09:48;;;;;;;4.53;1.90;;;;;;;;;;5073178;28;20052;-77
2023/09/04 14:12:15;;;;;;;4.93;1.90;;;;;;;;;;5073994;28;20385;-78
2023/09/04 14:14:41;;;;;;;3.60;1.83;;;;;;;;;;5072613;28;20036;-78
2023/09/04 14:17:07;;;;;;;3.85;1.75;;;;;;;;;;5072094;28;20052;-79
2023/09/04 14:19:33;;;;;;;2.75;1.60;;;;;;;;;;5072032;28;20121;-78
2023/09/04 14:21:59;;;;;;;2.97;1.70;;;;;;;;;;5073614;28;20439;-78
2023/09/04 14:24:25;;;;;;;3.25;1.83;;;;;;;;;;5086776;28;20084;-78
2023/09/04 14:26:52;;;;;;;2.33;1.60;;;;;;;;;;5070840;28;20044;-78
2023/09/04 14:29:18;;;;;;;4.60;1.67;;;;;;;;;;5073264;28;20053;-79
2023/09/04 14:31:45;;;;;;;3.30;1.90;;;;;;;;;;5073666;28;20041;-79